CFB Cold Lake
CYOD : now visible

Airfield :











YOU CAN JOIN US ON...

 
LOGIN :

Register | Disclaimer

   EN    FR    IT 

 









Legend :    VFR   Marginal VFR   IFR   Intensive IFR   Very Intensive IFR
Visi :
Ceiling :
>= 8 km
>= 3000ft
5 to 8 km
1000 to 3000 ft
1500m to 5 km
500 to 1000 ft
800 to 1500m
200 to 500 ft
< 800m
< 200 ft
Symbols :   Thunderstorms  Fog  Heavy snow  Heavy precipitations  Wind > 20 kt






- Airport Elevation : 1775 ft
- IATA code : YOD


CYOD - CFB Cold Lake

CURRENT METAR :
  • 170440Z 03006KT 4SM -SN OVC022 M17/M21 A2996 RMK SC8 VIS VRB 3-5 SLP195

EXPIRED METARs :
  • 170425Z 03003KT 8SM -SN OVC022 M17/M21 A2995 RMK SC8 SLP193
  • 170400Z 02006KT 15SM OVC022 M17/M22 A2994 RMK SC8 SLP190
  • 170300Z 03007KT 15SM OVC022 M15/M21 A2993 RMK SC8 SLP183
  • 170200Z 03007KT 15SM BKN022 M14/M19 A2990 RMK SC7 SLP172

TAF TAF CYOD
Valid from the 17 at 00:00 until the 18 at 00:00 UTC


162330Z 1700/1724 32005KT P6SM SCT020 BKN050
TEMPO 1700/1715 P6SM -SN BKN020 OVC050
FM171500 34008KT P6SM SCT030 BKN140
TEMPO 1715/1718 BKN030 OVC140
FM172100 33005KT P6SM FEW050 RMK NXT FCST BY 170600Z



MET'MAP, your aeronautical weather chart ! - Copyright ORBIFLY December 2007 - Disclaimer

ORBIFLY MET'MAP TEAM :

Programming & Development : Alexandra Zaïnal
Concept & original design : Baudouin d'Aumeries
Assistance for programming : Marc-Olivier Méhu
Technical & hardware support : Manuel Goepfert

Contact : metmap@orbifly.com




SOURCES & CREDITS :

   NOAA       Earth
Advisory